Weather

Rainfall Maps have ended for the season and will begin again on June 1st.

*Note: Some stations are located near irrigated fields and may also report irrigation

Forrest Carberry Carberry North Wawanesa Glenboro Glenora Treherne Gladstone Portage East High Bluff Elm Creek Carman Winkler Kuhl Farm Morris St.Adolphe Steinbach Selkirk Macdonald Shilo Rivers Somerset Reinland Altona Starbuck St.Pierre Winkler




Portage E - Historical Weather Data
Date Max Temp (°C) Min Temp (°C) Avg Temp (°C) Rain (mm) Avg RH (%) Solar Radiation (W/m2)
4/25/2018 20.8 4.2 11.6 0.1 46.0 20.7
4/24/2018 11.2 -0.6 4.8 0.0 61.0 25.4
4/23/2018 14.7 4.1 9.3 0.0 56.0 21.6
4/22/2018 17.8 5.7 11.8 0.0 55.0 18.4
4/21/2018 17.3 0.2 9.9 0.0 67.0 23.0
4/20/2018 15.0 -0.9 7.4 0.0 67.0 20.1
4/19/2018 12.6 -1.4 5.6 0.0 65.0 23.8
4/18/2018 12.1 -1.7 4.7 0.0 50.0 21.8
4/17/2018 10.4 -2.8 2.5 0.0 54.0 20.1
4/16/2018 6.5 -6.0 0.6 0.0 60.0 23.7
4/15/2018 4.4 -5.2 -0.7 0.0 58.0 24.1
4/14/2018 2.5 -7.4 -2.6 0.0 60.0 20.7
4/13/2018 -2.0 -10.2 -5.6 0.0 57.0 23.7
4/12/2018 -0.2 -4.6 -2.6 1.5 71.0 21.0
4/11/2018 2.5 -5.0 -1.2 1.3 70.0 18.9
4/10/2018 4.5 -3.8 0.2 0.0 71.0 13.8
4/9/2018 1.8 -12.0 -4.1 0.0 63.0 21.4
4/8/2018 -1.9 -13.5 -7.4 0.0 64.0 21.8
4/7/2018 -4.7 -13.5 -8.8 0.0 60.0 22.6
4/6/2018 -4.7 -17.5 -11.2 0.0 64.0 21.5
4/5/2018 -5.3 -14.5 -8.0 0.8 68.0 17.9
4/4/2018 -1.6 -10.4 -5.8 0.0 62.0 20.9
4/3/2018 -2.9 -17.6 -9.8 0.0 59.0 20.9
4/2/2018 -11.7 -18.5 -14.6 0.0 56.0 21.6
4/1/2018 -3.2 -11.7 -8.0 0.0 61.0 21.0
3/31/2018 -8.1 -15.0 -11.6 0.0 57.0 21.0
3/30/2018 -7.0 -17.2 -12.3 0.0 58.0 20.0
3/29/2018 -7.3 -15.5 -11.0 0.0 67.0 17.9
3/28/2018 3.0 -8.4 -5.1 1.9 76.0 15.6
3/27/2018 6.4 -3.3 1.5 0.1 78.0 19.0
3/26/2018 3.2 -2.4 0.0 0.0 91.0 11.6
3/25/2018 4.0 -1.5 1.0 0.2 84.0 11.4
3/24/2018 0.9 -3.1 -1.6 0.0 87.0 6.3
3/23/2018 2.3 -6.2 -1.0 0.0 77.0 14.5
3/22/2018 5.6 -3.0 -0.3 0.0 90.0 11.9
3/21/2018 0.0 -5.0 -2.2 0.0 94.0 13.6
3/20/2018 0.0 -7.8 -5.2 0.0 80.0 11.7
3/19/2018 -2.0 -9.3 -6.3 0.0 69.0 13.0
3/18/2018 1.5 -2.7 -0.4 0.0 79.0 14.2
3/17/2018 4.4 -12.9 -3.7 0.0 67.0 17.5
3/16/2018 -2.7 -18.8 -10.4 0.0 80.0 17.6
3/15/2018 -5.8 -19.0 -11.2 0.0 74.0 17.8
3/14/2018 -1.3 -11.6 -5.0 0.0 75.0 17.5
3/13/2018 3.5 -17.0 -5.3 0.0 72.0 15.5
3/12/2018 -1.8 -13.4 -5.3 0.0 69.0 17.0
3/11/2018 1.7 -10.2 -3.6 0.0 72.0 16.5
3/10/2018 -2.4 -12.9 -6.3 0.4 85.0 9.0
3/9/2018 -9.2 -18.9 -14.2 0.0 86.0 14.1
3/8/2018 -0.6 -20.0 -11.4 1.4 87.0 9.6
3/7/2018 -4.7 -17.0 -11.2 0.4 81.0 14.5
3/6/2018 -3.7 -12.9 -8.7 0.0 74.0 14.7
3/5/2018 0.1 -4.4 -1.2 2.9 95.0 6.3
3/4/2018 2.6 0.0 1.2 1.3 82.0 3.9
3/3/2018 2.5 -10.0 -2.3 0.0 71.0 12.1
3/2/2018 -2.3 -13.0 -7.0 0.0 81.0 10.7
3/1/2018 3.3 -11.5 -4.2 0.0 74.0 14.1
2/28/2018 1.8 -14.8 -5.1 0.0 74.0 13.8
2/27/2018 0.6 -11.3 -6.0 0.0 69.0 13.8
2/26/2018 1.7 -16.5 -7.2 0.0 76.0 10.2
2/25/2018 -2.6 -15.2 -8.3 0.1 81.0 12.3
2/24/2018 -1.8 -16.2 -8.3 1.1 74.0 10.4
2/23/2018 -6.6 -17.5 -12.6 0.0 73.0 12.5
2/22/2018 -4.8 -21.8 -13.5 0.0 70.0 12.6
2/21/2018 -12.1 -18.8 -15.7 0.0 67.0 10.0
2/20/2018 -10.2 -16.1 -13.7 0.4 69.0 10.4
2/19/2018 -14.8 -24.9 -19.0 0.0 68.0 10.3
2/18/2018 -11.5 -20.2 -15.6 0.0 70.0 8.7
2/17/2018 -9.7 -16.2 -12.2 0.0 67.0 10.7
2/16/2018 -7.6 -17.6 -12.9 0.0 68.0 8.0
2/15/2018 -13.4 -23.9 -19.8 0.0 67.0 10.8
2/14/2018 -0.2 -13.4 -4.3 0.8 80.0 5.3
2/13/2018 -3.3 -19.9 -9.9 0.0 65.0 6.3
2/12/2018 -16.1 -27.3 -22.1 0.0 62.0 10.7
2/11/2018 -13.6 -24.6 -18.3 0.0 73.0 7.8
2/10/2018 -11.1 -19.5 -15.3 0.0 66.0 6.5
2/9/2018 -12.5 -25.2 -18.7 0.0 66.0 9.8
2/8/2018 -15.8 -24.3 -20.3 0.0 73.0 8.8
2/7/2018 -14.1 -22.5 -19.2 0.0 70.0 9.8
2/6/2018 -14.3 -22.5 -19.0 0.0 70.0 7.0
2/5/2018 -15.4 -24.6 -19.2 0.0 70.0 8.1
2/4/2018 -15.3 -26.8 -20.6 0.0 63.0 5.1
2/3/2018 -21.9 -26.5 -23.5 0.0 73.0 6.8
2/2/2018 -16.9 -24.6 -20.6 1.0 77.0 4.3
2/1/2018 -19.0 -24.6 -22.1 0.0 71.0 8.5
1/31/2018 -13.6 -21.1 -18.3 0.0 66.0 5.9
1/30/2018 1.2 -21.5 -12.0 0.1 80.0 4.3
1/29/2018 -16.9 -21.7 -19.7 0.0 73.0 7.9
1/28/2018 -20.1 -22.5 -21.3 0.0 76.0 6.5
1/27/2018 -9.3 -20.2 -15.8 0.8 80.0 4.7
1/26/2018 -3.2 -9.3 -4.9 1.0 92.0 2.3
1/25/2018 -4.3 -11.8 -7.4 0.0 92.0 1.3
1/24/2018 -3.6 -13.4 -10.7 0.0 83.0 2.0
1/23/2018 -3.5 -6.6 -5.2 0.0 87.0 0.8
1/22/2018 -3.8 -8.2 -5.9 0.0 83.0 2.2
1/21/2018 -5.6 -8.9 -7.3 0.0 86.0 1.2
1/20/2018 2.1 -10.1 -4.3 0.0 87.0 6.2
1/19/2018 4.6 -3.0 1.8 0.0 78.0 5.0
1/18/2018 -0.7 -7.4 -5.2 0.0 79.0 3.3
1/17/2018 4.6 -10.0 -2.3 0.0 64.0 6.6
1/16/2018 -9.3 -25.7 -15.9 0.0 57.0 4.8
1/15/2018 -22.6 -27.0 -25.3 0.0 73.0 5.9
1/14/2018 -14.4 -23.8 -18.1 1.0 77.0 3.1
1/13/2018 -16.1 -27.3 -22.1 0.0 65.0 6.5
1/12/2018 -18.6 -27.1 -23.7 0.0 66.0 6.3
1/11/2018 -20.0 -26.3 -23.6 0.0 70.0 5.0
1/10/2018 -1.1 -20.1 -12.2 0.1 81.0 2.3
1/9/2018 -0.6 -13.6 -6.5 0.0 87.0 4.6
1/8/2018 -2.4 -15.0 -9.5 0.0 77.0 5.5
1/7/2018 1.1 -12.8 -3.7 0.0 78.0 3.5
1/6/2018 -8.6 -20.8 -14.0 0.0 79.0 2.3
1/5/2018 -20.1 -28.1 -24.1 0.0 76.0 5.0
1/4/2018 -20.5 -25.8 -23.3 0.0 75.0 5.3
1/3/2018 -19.6 -24.1 -21.2 0.0 75.0 4.3
1/2/2018 -12.4 -21.4 -17.3 0.0 70.0 3.2
1/1/2018 -16.6 -26.6 -21.6 0.0 63.0 5.8
12/31/2017 -23.1 -31.4 -26.9 0.0 67.0 5.3
12/30/2017 -25.1 -33.5 -30.5 0.0 66.0 5.6
12/29/2017 -24.6 -30.0 -27.2 0.0 72.0 5.2
12/28/2017 -20.3 -27.0 -22.4 0.3 76.0 4.3
12/27/2017 -21.1 -29.9 -25.3 0.0 69.0 5.0
12/26/2017 -24.3 -28.5 -26.5 0.0 64.0 5.3
12/25/2017 -25.1 -28.2 -26.7 0.0 63.0 5.1
12/24/2017 -19.5 -27.2 -23.7 0.0 74.0 3.9
12/23/2017 -8.1 -24.4 -15.5 0.3 75.0 2.7
12/22/2017 -8.9 -13.1 -10.5 0.0 79.0 2.1
12/21/2017 -10.3 -21.9 -17.0 0.0 76.0 5.4
12/20/2017 -15.7 -21.2 -18.0 0.0 79.0 3.1
12/19/2017 -2.5 -18.3 -10.4 0.0 73.0 2.8
12/18/2017 1.2 -3.2 0.1 0.0 72.0 2.5
12/17/2017 0.9 -7.3 -3.4 0.0 73.0 5.5
12/16/2017 -6.5 -13.1 -10.3 0.0 89.0 3.4
12/15/2017 -8.7 -11.1 -10.1 0.0 87.0 2.1
12/14/2017 -5.8 -9.4 -7.7 0.0 85.0 2.1
12/13/2017 -3.0 -12.9 -7.2 0.0 87.0 2.1
12/12/2017 1.0 -11.7 -5.9 0.0 90.0 3.4
12/11/2017 1.7 -13.9 -8.8 0.0 83.0 5.2
12/10/2017 1.6 -9.0 -5.4 1.2 85.0 3.2
12/9/2017 0.6 -8.5 -5.1 0.0 78.0 2.8
12/8/2017 2.5 -8.6 -5.1 0.0 80.0 4.6
12/7/2017 -3.0 -14.3 -7.4 0.0 80.0 2.5
12/6/2017 -11.3 -15.1 -13.4 0.0 71.0 5.1
12/5/2017 -10.1 -15.1 -12.7 0.0 73.0 4.5
12/4/2017 -3.4 -13.3 -6.2 0.0 84.0 1.6
12/3/2017 1.3 -7.5 -3.0 0.0 85.0 3.3
12/2/2017 4.1 -8.6 -1.4 0.0 81.0 5.3
12/1/2017 1.4 -5.7 -1.5 0.0 83.0 3.5
11/30/2017 2.7 -1.5 0.6 0.0 78.0 5.2
11/29/2017 3.4 -6.0 -0.3 0.4 75.0 2.0
11/28/2017 3.7 -9.4 -3.8 0.0 65.0 5.1
11/27/2017 5.8 -7.2 0.7 0.0 81.0 3.3
11/26/2017 1.7 -8.3 -5.4 0.0 82.0 2.3
11/25/2017 2.1 -12.2 -6.9 0.0 82.0 4.3
11/24/2017 5.9 -9.4 0.4 0.5 80.0 5.3
11/23/2017 5.8 -8.5 -3.6 0.0 85.0 3.7
11/22/2017 -5.9 -14.6 -9.6 0.1 82.0 3.5
11/21/2017 -7.4 -13.1 -10.4 0.0 75.0 6.6
11/20/2017 4.1 -9.8 -4.0 0.1 82.0 2.2
11/19/2017 -4.3 -12.8 -9.6 0.0 80.0 6.1
11/18/2017 -9.6 -12.4 -10.9 0.0 71.0 6.8
11/17/2017 1.2 -12.6 -6.8 0.0 72.0 7.3
11/16/2017 -0.8 -8.9 -5.5 0.1 87.0 2.1
11/15/2017 -2.0 -9.0 -7.3 0.0 84.0 4.2
11/14/2017 1.3 -8.7 -4.1 0.0 91.0 5.4
11/13/2017 -2.2 -9.0 -5.8 0.0 87.0 7.7
11/12/2017 -3.3 -9.6 -5.7 0.0 80.0 6.4
11/11/2017 -4.4 -10.0 -6.4 0.4 87.0 4.6
11/10/2017 -7.8 -24.1 -13.1 0.6 80.0 2.8
11/9/2017 -10.9 -23.4 -16.6 0.0 76.0 8.4
11/8/2017 -8.1 -16.6 -10.7 2.8 82.0 5.0
11/7/2017 -4.3 -15.2 -9.4 0.0 72.0 7.6
11/6/2017 -5.8 -13.6 -10.0 0.0 73.0 8.7
11/5/2017 -4.0 -10.2 -6.7 0.0 75.0 8.5
11/4/2017 -1.6 -4.5 -3.3 1.9 90.0 2.8
11/3/2017 -1.7 -8.3 -5.0 0.0 81.0 6.5
11/2/2017 -1.1 -6.1 -2.7 0.0 81.0 3.6
11/1/2017 0.0 -5.3 -2.5 0.4 86.0 3.2
10/31/2017 -1.6 -8.3 -4.7 0.0 77.0 6.7